sensor_id;sensor_type;location;lat;lon;timestamp;temperature;humidity
68215;DHT22;55036;52.138;5.236;2023-05-01T00:01:31;12.20;67.50
68215;DHT22;55036;52.138;5.236;2023-05-01T00:03:57;12.20;67.50
68215;DHT22;55036;52.138;5.236;2023-05-01T00:06:24;12.20;67.50
68215;DHT22;55036;52.138;5.236;2023-05-01T00:08:51;12.10;67.70
68215;DHT22;55036;52.138;5.236;2023-05-01T00:11:18;12.10;67.80
68215;DHT22;55036;52.138;5.236;2023-05-01T00:47:07;11.60;68.80
68215;DHT22;55036;52.138;5.236;2023-05-01T00:49:34;11.40;68.40
68215;DHT22;55036;52.138;5.236;2023-05-01T00:52:01;11.40;68.20
68215;DHT22;55036;52.138;5.236;2023-05-01T00:54:28;11.30;68.40
68215;DHT22;55036;52.138;5.236;2023-05-01T00:56:55;11.30;68.70
68215;DHT22;55036;52.138;5.236;2023-05-01T00:59:21;11.30;68.80
68215;DHT22;55036;52.138;5.236;2023-05-01T01:01:49;11.30;68.90
68215;DHT22;55036;52.138;5.236;2023-05-01T01:04:16;11.30;68.40
68215;DHT22;55036;52.138;5.236;2023-05-01T01:09:36;11.40;69.00
68215;DHT22;55036;52.138;5.236;2023-05-01T01:14:47;11.40;68.50
68215;DHT22;55036;52.138;5.236;2023-05-01T01:17:33;11.30;68.40
68215;DHT22;55036;52.138;5.236;2023-05-01T01:20:29;11.10;68.70
68215;DHT22;55036;52.138;5.236;2023-05-01T01:34:46;10.80;70.20
68215;DHT22;55036;52.138;5.236;2023-05-01T01:37:47;10.80;70.30
68215;DHT22;55036;52.138;5.236;2023-05-01T01:40:18;10.80;70.10
68215;DHT22;55036;52.138;5.236;2023-05-01T01:42:53;10.90;69.90
68215;DHT22;55036;52.138;5.236;2023-05-01T01:45:22;10.90;70.80
68215;DHT22;55036;52.138;5.236;2023-05-01T01:47:51;10.90;69.90
68215;DHT22;55036;52.138;5.236;2023-05-01T01:50:21;10.90;69.60
68215;DHT22;55036;52.138;5.236;2023-05-01T01:52:51;10.80;69.90
68215;DHT22;55036;52.138;5.236;2023-05-01T01:55:22;10.80;69.80
68215;DHT22;55036;52.138;5.236;2023-05-01T01:57:51;10.80;70.30
68215;DHT22;55036;52.138;5.236;2023-05-01T02:00:19;10.90;70.10
68215;DHT22;55036;52.138;5.236;2023-05-01T02:02:47;10.90;70.10
68215;DHT22;55036;52.138;5.236;2023-05-01T02:05:16;10.80;69.80
68215;DHT22;55036;52.138;5.236;2023-05-01T02:07:46;10.80;69.80
68215;DHT22;55036;52.138;5.236;2023-05-01T02:10:14;10.80;69.60
68215;DHT22;55036;52.138;5.236;2023-05-01T02:12:45;10.70;70.00
68215;DHT22;55036;52.138;5.236;2023-05-01T02:15:14;10.70;69.90
68215;DHT22;55036;52.138;5.236;2023-05-01T02:17:42;10.60;70.20
68215;DHT22;55036;52.138;5.236;2023-05-01T02:20:10;10.70;70.40
68215;DHT22;55036;52.138;5.236;2023-05-01T02:22:41;10.60;70.20
68215;DHT22;55036;52.138;5.236;2023-05-01T02:25:11;10.70;70.50
68215;DHT22;55036;52.138;5.236;2023-05-01T02:28:05;10.80;70.70
68215;DHT22;55036;52.138;5.236;2023-05-01T02:30:34;10.80;70.70
68215;DHT22;55036;52.138;5.236;2023-05-01T02:33:01;10.80;70.40
68215;DHT22;55036;52.138;5.236;2023-05-01T02:35:28;10.90;70.60
68215;DHT22;55036;52.138;5.236;2023-05-01T02:37:55;10.90;70.30
68215;DHT22;55036;52.138;5.236;2023-05-01T02:40:22;10.90;70.40
68215;DHT22;55036;52.138;5.236;2023-05-01T02:42:50;10.80;70.50
68215;DHT22;55036;52.138;5.236;2023-05-01T02:45:20;10.60;71.20
68215;DHT22;55036;52.138;5.236;2023-05-01T02:47:50;10.50;71.70
68215;DHT22;55036;52.138;5.236;2023-05-01T02:50:18;10.40;72.40
68215;DHT22;55036;52.138;5.236;2023-05-01T02:52:46;10.30;72.50
68215;DHT22;55036;52.138;5.236;2023-05-01T02:55:13;10.40;72.20
68215;DHT22;55036;52.138;5.236;2023-05-01T02:57:40;10.60;72.10
68215;DHT22;55036;52.138;5.236;2023-05-01T03:00:07;10.70;71.90
68215;DHT22;55036;52.138;5.236;2023-05-01T03:02:35;10.60;71.50
68215;DHT22;55036;52.138;5.236;2023-05-01T03:05:02;10.70;72.60
68215;DHT22;55036;52.138;5.236;2023-05-01T03:07:29;10.70;71.60
68215;DHT22;55036;52.138;5.236;2023-05-01T03:10:05;10.80;71.50
68215;DHT22;55036;52.138;5.236;2023-05-01T03:12:33;10.70;71.70
68215;DHT22;55036;52.138;5.236;2023-05-01T03:14:59;10.60;71.60
68215;DHT22;55036;52.138;5.236;2023-05-01T03:17:26;10.50;71.80
68215;DHT22;55036;52.138;5.236;2023-05-01T03:19:53;10.40;72.10
68215;DHT22;55036;52.138;5.236;2023-05-01T03:22:20;10.40;72.50
68215;DHT22;55036;52.138;5.236;2023-05-01T03:24:47;10.40;72.40
68215;DHT22;55036;52.138;5.236;2023-05-01T03:27:15;10.40;72.30
68215;DHT22;55036;52.138;5.236;2023-05-01T03:29:41;10.50;72.20
68215;DHT22;55036;52.138;5.236;2023-05-01T03:32:08;10.50;72.10
68215;DHT22;55036;52.138;5.236;2023-05-01T03:34:35;10.50;72.40
68215;DHT22;55036;52.138;5.236;2023-05-01T03:37:01;10.60;72.30
68215;DHT22;55036;52.138;5.236;2023-05-01T03:39:28;10.60;72.00
68215;DHT22;55036;52.138;5.236;2023-05-01T03:41:55;10.60;72.30
68215;DHT22;55036;52.138;5.236;2023-05-01T03:44:21;10.60;72.20
68215;DHT22;55036;52.138;5.236;2023-05-01T03:46:48;10.70;72.20
68215;DHT22;55036;52.138;5.236;2023-05-01T03:49:14;10.80;72.00
68215;DHT22;55036;52.138;5.236;2023-05-01T03:51:41;10.90;72.00
68215;DHT22;55036;52.138;5.236;2023-05-01T03:54:08;10.90;71.70
68215;DHT22;55036;52.138;5.236;2023-05-01T03:56:34;10.80;71.60
68215;DHT22;55036;52.138;5.236;2023-05-01T03:59:02;10.90;71.70
68215;DHT22;55036;52.138;5.236;2023-05-01T04:01:29;11.00;71.80
68215;DHT22;55036;52.138;5.236;2023-05-01T04:03:59;11.00;71.80
68215;DHT22;55036;52.138;5.236;2023-05-01T04:06:25;11.10;71.60
68215;DHT22;55036;52.138;5.236;2023-05-01T04:08:52;11.00;71.70
68215;DHT22;55036;52.138;5.236;2023-05-01T04:11:19;10.90;72.10
68215;DHT22;55036;52.138;5.236;2023-05-01T04:13:46;10.90;72.90
68215;DHT22;55036;52.138;5.236;2023-05-01T04:16:13;10.80;72.10
68215;DHT22;55036;52.138;5.236;2023-05-01T04:18:40;10.90;72.10
68215;DHT22;55036;52.138;5.236;2023-05-01T04:21:06;11.00;72.00
68215;DHT22;55036;52.138;5.236;2023-05-01T04:23:33;11.00;71.30
68215;DHT22;55036;52.138;5.236;2023-05-01T04:26:00;10.90;71.40
68215;DHT22;55036;52.138;5.236;2023-05-01T04:28:26;10.90;71.60
68215;DHT22;55036;52.138;5.236;2023-05-01T04:30:56;11.00;71.70
68215;DHT22;55036;52.138;5.236;2023-05-01T04:33:23;11.00;71.40
68215;DHT22;55036;52.138;5.236;2023-05-01T04:35:50;11.00;71.50
68215;DHT22;55036;52.138;5.236;2023-05-01T04:38:16;11.00;71.70
68215;DHT22;55036;52.138;5.236;2023-05-01T04:40:43;11.10;71.80
68215;DHT22;55036;52.138;5.236;2023-05-01T04:43:10;11.10;71.70
68215;DHT22;55036;52.138;5.236;2023-05-01T04:45:37;11.00;71.30
68215;DHT22;55036;52.138;5.236;2023-05-01T04:48:04;11.00;71.40
68215;DHT22;55036;52.138;5.236;2023-05-01T04:50:31;11.00;71.30
68215;DHT22;55036;52.138;5.236;2023-05-01T04:52:58;11.00;71.50
68215;DHT22;55036;52.138;5.236;2023-05-01T04:55:25;11.10;71.50
68215;DHT22;55036;52.138;5.236;2023-05-01T04:57:51;11.00;71.70
68215;DHT22;55036;52.138;5.236;2023-05-01T05:00:18;11.00;71.50
68215;DHT22;55036;52.138;5.236;2023-05-01T05:02:45;10.90;71.70
68215;DHT22;55036;52.138;5.236;2023-05-01T05:05:12;10.80;71.80
68215;DHT22;55036;52.138;5.236;2023-05-01T05:07:39;10.80;71.80
68215;DHT22;55036;52.138;5.236;2023-05-01T05:10:06;10.80;71.90
68215;DHT22;55036;52.138;5.236;2023-05-01T05:12:33;10.80;71.90
68215;DHT22;55036;52.138;5.236;2023-05-01T05:15:00;10.90;71.80
68215;DHT22;55036;52.138;5.236;2023-05-01T05:17:26;11.00;71.50
68215;DHT22;55036;52.138;5.236;2023-05-01T05:19:53;10.90;72.10
68215;DHT22;55036;52.138;5.236;2023-05-01T05:22:20;11.00;71.70
68215;DHT22;55036;52.138;5.236;2023-05-01T05:24:52;10.90;71.90
68215;DHT22;55036;52.138;5.236;2023-05-01T05:27:20;11.00;71.70
68215;DHT22;55036;52.138;5.236;2023-05-01T05:29:47;11.10;71.60
68215;DHT22;55036;52.138;5.236;2023-05-01T05:32:13;11.10;71.60
68215;DHT22;55036;52.138;5.236;2023-05-01T05:34:40;11.20;71.50
68215;DHT22;55036;52.138;5.236;2023-05-01T05:37:07;11.30;71.60
68215;DHT22;55036;52.138;5.236;2023-05-01T05:39:34;11.20;72.20
68215;DHT22;55036;52.138;5.236;2023-05-01T05:42:00;11.20;71.30
68215;DHT22;55036;52.138;5.236;2023-05-01T05:44:29;11.10;71.50
68215;DHT22;55036;52.138;5.236;2023-05-01T05:46:57;11.10;71.80
68215;DHT22;55036;52.138;5.236;2023-05-01T05:49:23;11.20;71.70
68215;DHT22;55036;52.138;5.236;2023-05-01T05:51:50;11.30;71.60
68215;DHT22;55036;52.138;5.236;2023-05-01T05:54:17;11.30;71.40
68215;DHT22;55036;52.138;5.236;2023-05-01T05:56:43;11.20;71.60
68215;DHT22;55036;52.138;5.236;2023-05-01T05:59:10;11.10;71.40
68215;DHT22;55036;52.138;5.236;2023-05-01T06:01:37;11.10;71.90
68215;DHT22;55036;52.138;5.236;2023-05-01T06:04:05;11.20;71.80
68215;DHT22;55036;52.138;5.236;2023-05-01T06:06:32;11.40;71.80
68215;DHT22;55036;52.138;5.236;2023-05-01T06:08:59;11.50;71.40
68215;DHT22;55036;52.138;5.236;2023-05-01T06:11:28;11.50;71.00
68215;DHT22;55036;52.138;5.236;2023-05-01T06:13:54;11.30;71.30
68215;DHT22;55036;52.138;5.236;2023-05-01T06:16:22;11.30;71.20
68215;DHT22;55036;52.138;5.236;2023-05-01T06:18:49;11.30;71.10
68215;DHT22;55036;52.138;5.236;2023-05-01T06:21:16;11.40;71.20
68215;DHT22;55036;52.138;5.236;2023-05-01T06:23:43;11.50;71.00
68215;DHT22;55036;52.138;5.236;2023-05-01T06:26:09;11.60;70.70
68215;DHT22;55036;52.138;5.236;2023-05-01T06:28:36;11.60;70.10
68215;DHT22;55036;52.138;5.236;2023-05-01T06:31:03;11.70;71.20
68215;DHT22;55036;52.138;5.236;2023-05-01T06:33:29;11.70;70.30
68215;DHT22;55036;52.138;5.236;2023-05-01T06:35:56;11.80;70.30
68215;DHT22;55036;52.138;5.236;2023-05-01T06:38:26;11.90;69.90
68215;DHT22;55036;52.138;5.236;2023-05-01T06:40:52;12.00;69.90
68215;DHT22;55036;52.138;5.236;2023-05-01T06:43:19;12.00;70.10
68215;DHT22;55036;52.138;5.236;2023-05-01T06:45:46;12.10;69.90
68215;DHT22;55036;52.138;5.236;2023-05-01T06:48:12;12.10;69.80
68215;DHT22;55036;52.138;5.236;2023-05-01T06:50:39;12.10;69.00
68215;DHT22;55036;52.138;5.236;2023-05-01T06:53:06;12.10;70.00
68215;DHT22;55036;52.138;5.236;2023-05-01T06:55:32;12.30;69.80
68215;DHT22;55036;52.138;5.236;2023-05-01T06:58:01;12.40;69.80
68215;DHT22;55036;52.138;5.236;2023-05-01T07:00:47;12.40;69.40
68215;DHT22;55036;52.138;5.236;2023-05-01T07:03:14;12.40;68.90
68215;DHT22;55036;52.138;5.236;2023-05-01T07:05:41;12.40;69.00
68215;DHT22;55036;52.138;5.236;2023-05-01T07:08:07;12.40;68.70
68215;DHT22;55036;52.138;5.236;2023-05-01T07:10:35;12.50;67.50
68215;DHT22;55036;52.138;5.236;2023-05-01T07:13:05;12.50;68.20
68215;DHT22;55036;52.138;5.236;2023-05-01T07:15:32;12.50;68.90
68215;DHT22;55036;52.138;5.236;2023-05-01T07:17:59;12.70;68.10
68215;DHT22;55036;52.138;5.236;2023-05-01T07:20:28;12.80;68.20
68215;DHT22;55036;52.138;5.236;2023-05-01T07:22:55;12.90;67.90
68215;DHT22;55036;52.138;5.236;2023-05-01T07:25:22;13.00;67.30
68215;DHT22;55036;52.138;5.236;2023-05-01T07:27:48;13.10;67.20
68215;DHT22;55036;52.138;5.236;2023-05-01T07:30:15;13.20;67.30
68215;DHT22;55036;52.138;5.236;2023-05-01T07:32:42;13.30;67.20
68215;DHT22;55036;52.138;5.236;2023-05-01T07:35:08;13.40;67.00
68215;DHT22;55036;52.138;5.236;2023-05-01T07:37:35;13.50;67.00
68215;DHT22;55036;52.138;5.236;2023-05-01T07:40:02;13.60;66.50
68215;DHT22;55036;52.138;5.236;2023-05-01T07:42:29;13.50;66.10
68215;DHT22;55036;52.138;5.236;2023-05-01T07:44:56;13.60;66.10
68215;DHT22;55036;52.138;5.236;2023-05-01T07:47:22;13.60;66.20
68215;DHT22;55036;52.138;5.236;2023-05-01T07:49:49;13.70;66.20
68215;DHT22;55036;52.138;5.236;2023-05-01T07:52:16;13.80;65.60
68215;DHT22;55036;52.138;5.236;2023-05-01T07:54:48;13.60;65.30
68215;DHT22;55036;52.138;5.236;2023-05-01T07:57:15;13.80;65.80
68215;DHT22;55036;52.138;5.236;2023-05-01T07:59:42;13.90;65.80
68215;DHT22;55036;52.138;5.236;2023-05-01T08:02:08;14.00;65.80
68215;DHT22;55036;52.138;5.236;2023-05-01T08:04:35;14.20;65.50
68215;DHT22;55036;52.138;5.236;2023-05-01T08:07:02;14.10;64.80
68215;DHT22;55036;52.138;5.236;2023-05-01T08:09:28;14.20;65.20
68215;DHT22;55036;52.138;5.236;2023-05-01T08:11:55;14.30;65.40
68215;DHT22;55036;52.138;5.236;2023-05-01T08:14:22;14.40;65.30
68215;DHT22;55036;52.138;5.236;2023-05-01T08:16:48;14.50;65.30
68215;DHT22;55036;52.138;5.236;2023-05-01T08:19:20;14.70;65.30
68215;DHT22;55036;52.138;5.236;2023-05-01T08:21:47;14.70;64.90
68215;DHT22;55036;52.138;5.236;2023-05-01T08:24:13;14.80;64.90
68215;DHT22;55036;52.138;5.236;2023-05-01T08:26:40;14.80;64.20
68215;DHT22;55036;52.138;5.236;2023-05-01T08:29:07;14.80;64.10
68215;DHT22;55036;52.138;5.236;2023-05-01T08:31:33;14.90;64.10
68215;DHT22;55036;52.138;5.236;2023-05-01T08:34:06;15.00;63.80
68215;DHT22;55036;52.138;5.236;2023-05-01T08:36:33;15.00;63.50
68215;DHT22;55036;52.138;5.236;2023-05-01T08:38:59;15.00;63.30
68215;DHT22;55036;52.138;5.236;2023-05-01T08:41:27;15.10;63.20
68215;DHT22;55036;52.138;5.236;2023-05-01T08:43:56;15.10;63.30
68215;DHT22;55036;52.138;5.236;2023-05-01T08:46:43;15.10;62.90
68215;DHT22;55036;52.138;5.236;2023-05-01T08:49:14;15.20;63.10
68215;DHT22;55036;52.138;5.236;2023-05-01T08:51:44;15.20;63.10
68215;DHT22;55036;52.138;5.236;2023-05-01T08:54:14;15.40;63.30
68215;DHT22;55036;52.138;5.236;2023-05-01T08:56:43;15.50;63.30
68215;DHT22;55036;52.138;5.236;2023-05-01T08:59:13;15.50;62.90
68215;DHT22;55036;52.138;5.236;2023-05-01T09:01:41;15.60;62.90
68215;DHT22;55036;52.138;5.236;2023-05-01T09:04:09;15.70;62.70
68215;DHT22;55036;52.138;5.236;2023-05-01T09:06:37;15.80;62.70
68215;DHT22;55036;52.138;5.236;2023-05-01T09:09:04;15.90;62.20
68215;DHT22;55036;52.138;5.236;2023-05-01T09:11:31;16.00;62.00
68215;DHT22;55036;52.138;5.236;2023-05-01T09:13:59;16.10;61.90
68215;DHT22;55036;52.138;5.236;2023-05-01T09:16:28;16.10;61.10
68215;DHT22;55036;52.138;5.236;2023-05-01T09:18:55;16.20;61.00
68215;DHT22;55036;52.138;5.236;2023-05-01T09:21:22;16.40;60.50
68215;DHT22;55036;52.138;5.236;2023-05-01T09:23:51;16.50;61.00
68215;DHT22;55036;52.138;5.236;2023-05-01T09:26:19;16.60;59.60
68215;DHT22;55036;52.138;5.236;2023-05-01T09:28:47;16.70;60.40
68215;DHT22;55036;52.138;5.236;2023-05-01T09:31:27;16.80;59.30
68215;DHT22;55036;52.138;5.236;2023-05-01T09:33:59;16.90;59.20
68215;DHT22;55036;52.138;5.236;2023-05-01T09:36:27;16.90;56.90
68215;DHT22;55036;52.138;5.236;2023-05-01T09:38:55;16.80;55.00
68215;DHT22;55036;52.138;5.236;2023-05-01T09:41:22;16.70;56.30
68215;DHT22;55036;52.138;5.236;2023-05-01T09:43:56;16.80;53.90
68215;DHT22;55036;52.138;5.236;2023-05-01T09:46:24;16.80;54.90
68215;DHT22;55036;52.138;5.236;2023-05-01T09:48:56;16.80;53.90
68215;DHT22;55036;52.138;5.236;2023-05-01T09:51:29;16.80;54.10
68215;DHT22;55036;52.138;5.236;2023-05-01T09:53:59;16.90;53.50
68215;DHT22;55036;52.138;5.236;2023-05-01T09:56:28;17.00;55.30
68215;DHT22;55036;52.138;5.236;2023-05-01T09:58:57;17.10;54.30
68215;DHT22;55036;52.138;5.236;2023-05-01T10:01:41;17.20;52.40
68215;DHT22;55036;52.138;5.236;2023-05-01T10:04:08;17.20;50.70
68215;DHT22;55036;52.138;5.236;2023-05-01T10:06:35;17.30;51.20
68215;DHT22;55036;52.138;5.236;2023-05-01T10:09:03;17.30;49.90
68215;DHT22;55036;52.138;5.236;2023-05-01T10:11:48;17.30;49.30
68215;DHT22;55036;52.138;5.236;2023-05-01T10:14:15;17.30;49.90
68215;DHT22;55036;52.138;5.236;2023-05-01T10:16:43;17.40;50.30
68215;DHT22;55036;52.138;5.236;2023-05-01T10:19:10;17.50;50.60
68215;DHT22;55036;52.138;5.236;2023-05-01T10:21:37;17.70;51.00
68215;DHT22;55036;52.138;5.236;2023-05-01T10:24:04;17.80;49.60
68215;DHT22;55036;52.138;5.236;2023-05-01T10:26:32;17.70;49.40
68215;DHT22;55036;52.138;5.236;2023-05-01T10:29:00;17.80;49.50
68215;DHT22;55036;52.138;5.236;2023-05-01T10:31:28;17.90;49.10
68215;DHT22;55036;52.138;5.236;2023-05-01T10:33:55;17.90;49.40
68215;DHT22;55036;52.138;5.236;2023-05-01T10:36:25;17.90;49.40
68215;DHT22;55036;52.138;5.236;2023-05-01T10:38:53;18.00;49.60
68215;DHT22;55036;52.138;5.236;2023-05-01T10:44:25;17.90;50.00
68215;DHT22;55036;52.138;5.236;2023-05-01T10:46:53;17.90;51.40
68215;DHT22;55036;52.138;5.236;2023-05-01T10:49:20;17.80;51.80
68215;DHT22;55036;52.138;5.236;2023-05-01T10:54:32;17.60;52.60
68215;DHT22;55036;52.138;5.236;2023-05-01T10:57:00;17.60;53.40
68215;DHT22;55036;52.138;5.236;2023-05-01T11:02:27;17.30;53.60
68215;DHT22;55036;52.138;5.236;2023-05-01T11:04:55;17.30;53.40
68215;DHT22;55036;52.138;5.236;2023-05-01T11:07:23;17.30;53.00
68215;DHT22;55036;52.138;5.236;2023-05-01T11:09:54;17.20;53.10
68215;DHT22;55036;52.138;5.236;2023-05-01T11:15:30;17.10;53.70
68215;DHT22;55036;52.138;5.236;2023-05-01T11:17:59;17.10;54.10
68215;DHT22;55036;52.138;5.236;2023-05-01T11:22:56;17.30;54.10
68215;DHT22;55036;52.138;5.236;2023-05-01T11:27:52;17.40;55.00
68215;DHT22;55036;52.138;5.236;2023-05-01T11:30:20;17.50;55.20
68215;DHT22;55036;52.138;5.236;2023-05-01T11:32:47;17.50;54.90
68215;DHT22;55036;52.138;5.236;2023-05-01T11:35:26;17.50;53.70
68215;DHT22;55036;52.138;5.236;2023-05-01T11:37:53;17.60;53.60
68215;DHT22;55036;52.138;5.236;2023-05-01T11:40:28;17.80;52.80
68215;DHT22;55036;52.138;5.236;2023-05-01T11:43:02;17.80;52.90
68215;DHT22;55036;52.138;5.236;2023-05-01T11:45:30;18.10;53.10
68215;DHT22;55036;52.138;5.236;2023-05-01T11:47:57;18.30;52.10
68215;DHT22;55036;52.138;5.236;2023-05-01T11:50:36;18.20;53.60
68215;DHT22;55036;52.138;5.236;2023-05-01T11:53:09;17.90;54.90
68215;DHT22;55036;52.138;5.236;2023-05-01T11:55:37;17.80;56.80
68215;DHT22;55036;52.138;5.236;2023-05-01T11:58:04;17.60;55.90
68215;DHT22;55036;52.138;5.236;2023-05-01T12:00:35;17.70;56.40
68215;DHT22;55036;52.138;5.236;2023-05-01T12:05:35;17.30;57.90
68215;DHT22;55036;52.138;5.236;2023-05-01T12:08:09;17.10;58.00
68215;DHT22;55036;52.138;5.236;2023-05-01T12:10:38;17.10;58.40
68215;DHT22;55036;52.138;5.236;2023-05-01T12:13:07;17.00;58.50
68215;DHT22;55036;52.138;5.236;2023-05-01T12:15:36;17.00;58.20
68215;DHT22;55036;52.138;5.236;2023-05-01T12:18:04;17.10;58.40
68215;DHT22;55036;52.138;5.236;2023-05-01T12:20:35;17.10;58.10
68215;DHT22;55036;52.138;5.236;2023-05-01T12:23:07;16.90;58.40
68215;DHT22;55036;52.138;5.236;2023-05-01T12:25:37;16.70;59.80
68215;DHT22;55036;52.138;5.236;2023-05-01T12:30:36;16.60;60.10
68215;DHT22;55036;52.138;5.236;2023-05-01T12:33:17;16.70;61.10
68215;DHT22;55036;52.138;5.236;2023-05-01T12:35:46;16.70;61.20
68215;DHT22;55036;52.138;5.236;2023-05-01T12:40:54;16.80;61.30
68215;DHT22;55036;52.138;5.236;2023-05-01T12:43:30;16.80;62.20
68215;DHT22;55036;52.138;5.236;2023-05-01T12:45:57;16.70;62.30
68215;DHT22;55036;52.138;5.236;2023-05-01T12:48:24;16.50;62.10
68215;DHT22;55036;52.138;5.236;2023-05-01T12:50:51;16.50;62.80
68215;DHT22;55036;52.138;5.236;2023-05-01T12:53:22;16.50;62.80
68215;DHT22;55036;52.138;5.236;2023-05-01T12:55:54;16.50;63.50
68215;DHT22;55036;52.138;5.236;2023-05-01T12:58:22;16.50;63.90
68215;DHT22;55036;52.138;5.236;2023-05-01T13:00:50;16.60;64.30
68215;DHT22;55036;52.138;5.236;2023-05-01T13:03:25;16.50;64.40
68215;DHT22;55036;52.138;5.236;2023-05-01T13:05:58;16.60;66.00
68215;DHT22;55036;52.138;5.236;2023-05-01T13:08:38;16.50;65.30
68215;DHT22;55036;52.138;5.236;2023-05-01T13:11:12;16.60;65.10
68215;DHT22;55036;52.138;5.236;2023-05-01T13:13:39;16.60;65.30
68215;DHT22;55036;52.138;5.236;2023-05-01T13:16:10;16.60;65.50
68215;DHT22;55036;52.138;5.236;2023-05-01T13:18:49;16.50;65.90
68215;DHT22;55036;52.138;5.236;2023-05-01T13:21:20;16.60;66.00
68215;DHT22;55036;52.138;5.236;2023-05-01T13:23:57;16.70;66.20
68215;DHT22;55036;52.138;5.236;2023-05-01T13:26:31;16.70;66.20
68215;DHT22;55036;52.138;5.236;2023-05-01T13:28:59;16.60;66.10
68215;DHT22;55036;52.138;5.236;2023-05-01T13:31:30;16.70;66.30
68215;DHT22;55036;52.138;5.236;2023-05-01T13:33:57;16.80;66.80
68215;DHT22;55036;52.138;5.236;2023-05-01T13:36:24;16.80;66.70
68215;DHT22;55036;52.138;5.236;2023-05-01T13:38:54;16.90;66.80
68215;DHT22;55036;52.138;5.236;2023-05-01T13:41:23;17.00;67.10
68215;DHT22;55036;52.138;5.236;2023-05-01T13:43:52;17.00;66.40
68215;DHT22;55036;52.138;5.236;2023-05-01T13:46:20;17.10;65.90
68215;DHT22;55036;52.138;5.236;2023-05-01T13:48:48;17.20;65.50
68215;DHT22;55036;52.138;5.236;2023-05-01T13:51:22;17.30;65.40
68215;DHT22;55036;52.138;5.236;2023-05-01T13:53:50;17.50;62.70
68215;DHT22;55036;52.138;5.236;2023-05-01T13:56:19;17.60;63.60
68215;DHT22;55036;52.138;5.236;2023-05-01T13:58:47;17.90;64.60
68215;DHT22;55036;52.138;5.236;2023-05-01T14:01:15;18.30;63.60
68215;DHT22;55036;52.138;5.236;2023-05-01T14:03:42;18.70;62.60
68215;DHT22;55036;52.138;5.236;2023-05-01T14:06:17;19.00;61.00
68215;DHT22;55036;52.138;5.236;2023-05-01T14:08:46;19.10;56.50
68215;DHT22;55036;52.138;5.236;2023-05-01T14:11:13;19.20;58.10
68215;DHT22;55036;52.138;5.236;2023-05-01T14:13:45;19.30;57.30
68215;DHT22;55036;52.138;5.236;2023-05-01T14:16:30;19.40;56.20
68215;DHT22;55036;52.138;5.236;2023-05-01T14:18:57;19.50;55.90
68215;DHT22;55036;52.138;5.236;2023-05-01T14:21:25;19.40;55.40
68215;DHT22;55036;52.138;5.236;2023-05-01T14:23:55;19.50;54.60
68215;DHT22;55036;52.138;5.236;2023-05-01T14:26:22;19.60;54.70
68215;DHT22;55036;52.138;5.236;2023-05-01T14:28:52;19.50;52.10
68215;DHT22;55036;52.138;5.236;2023-05-01T14:31:27;19.40;53.20
68215;DHT22;55036;52.138;5.236;2023-05-01T14:33:59;19.40;51.60
68215;DHT22;55036;52.138;5.236;2023-05-01T14:36:27;19.30;49.40
68215;DHT22;55036;52.138;5.236;2023-05-01T14:39:01;19.10;51.50
68215;DHT22;55036;52.138;5.236;2023-05-01T14:41:29;19.20;51.90
68215;DHT22;55036;52.138;5.236;2023-05-01T14:43:56;19.20;49.80
68215;DHT22;55036;52.138;5.236;2023-05-01T14:46:28;19.10;51.10
68215;DHT22;55036;52.138;5.236;2023-05-01T14:48:56;19.10;51.30
68215;DHT22;55036;52.138;5.236;2023-05-01T14:51:23;19.10;50.70
68215;DHT22;55036;52.138;5.236;2023-05-01T14:53:50;19.10;50.50
68215;DHT22;55036;52.138;5.236;2023-05-01T14:56:17;19.10;51.20
68215;DHT22;55036;52.138;5.236;2023-05-01T14:58:44;19.20;50.80
68215;DHT22;55036;52.138;5.236;2023-05-01T15:01:12;19.30;51.20
68215;DHT22;55036;52.138;5.236;2023-05-01T15:03:39;19.40;50.50
68215;DHT22;55036;52.138;5.236;2023-05-01T15:06:08;19.50;49.80
68215;DHT22;55036;52.138;5.236;2023-05-01T15:08:35;19.40;50.30
68215;DHT22;55036;52.138;5.236;2023-05-01T15:11:02;19.20;49.30
68215;DHT22;55036;52.138;5.236;2023-05-01T15:13:28;19.20;50.40
68215;DHT22;55036;52.138;5.236;2023-05-01T15:15:57;19.40;50.40
68215;DHT22;55036;52.138;5.236;2023-05-01T15:18:24;19.30;50.20
68215;DHT22;55036;52.138;5.236;2023-05-01T15:20:51;19.30;50.30
68215;DHT22;55036;52.138;5.236;2023-05-01T15:23:18;19.30;50.30
68215;DHT22;55036;52.138;5.236;2023-05-01T15:25:45;19.30;50.60
68215;DHT22;55036;52.138;5.236;2023-05-01T15:28:13;19.30;50.40
68215;DHT22;55036;52.138;5.236;2023-05-01T15:30:43;19.30;49.20
68215;DHT22;55036;52.138;5.236;2023-05-01T15:33:12;19.20;49.20
68215;DHT22;55036;52.138;5.236;2023-05-01T15:35:40;19.10;49.50
68215;DHT22;55036;52.138;5.236;2023-05-01T15:38:07;19.20;49.80
68215;DHT22;55036;52.138;5.236;2023-05-01T15:40:34;19.30;50.20
68215;DHT22;55036;52.138;5.236;2023-05-01T15:43:03;19.30;49.90
68215;DHT22;55036;52.138;5.236;2023-05-01T15:45:30;19.30;49.60
68215;DHT22;55036;52.138;5.236;2023-05-01T15:47:57;19.10;50.30
68215;DHT22;55036;52.138;5.236;2023-05-01T15:50:24;19.10;49.80
68215;DHT22;55036;52.138;5.236;2023-05-01T15:52:51;19.00;49.80
68215;DHT22;55036;52.138;5.236;2023-05-01T15:55:18;19.00;49.80
68215;DHT22;55036;52.138;5.236;2023-05-01T15:57:45;18.90;50.80
68215;DHT22;55036;52.138;5.236;2023-05-01T16:00:15;18.80;51.30
68215;DHT22;55036;52.138;5.236;2023-05-01T16:02:42;18.60;51.70
68215;DHT22;55036;52.138;5.236;2023-05-01T16:05:11;18.50;51.80
68215;DHT22;55036;52.138;5.236;2023-05-01T16:07:39;18.30;52.60
68215;DHT22;55036;52.138;5.236;2023-05-01T16:10:07;18.30;53.00
68215;DHT22;55036;52.138;5.236;2023-05-01T16:12:36;18.30;53.00
68215;DHT22;55036;52.138;5.236;2023-05-01T16:15:04;18.30;53.30
68215;DHT22;55036;52.138;5.236;2023-05-01T16:17:31;18.20;53.50
68215;DHT22;55036;52.138;5.236;2023-05-01T16:20:03;18.10;54.40
68215;DHT22;55036;52.138;5.236;2023-05-01T16:22:35;18.00;54.70
68215;DHT22;55036;52.138;5.236;2023-05-01T16:25:02;18.10;55.90
68215;DHT22;55036;52.138;5.236;2023-05-01T16:27:29;18.20;55.50
68215;DHT22;55036;52.138;5.236;2023-05-01T16:29:56;18.10;55.90
68215;DHT22;55036;52.138;5.236;2023-05-01T16:32:23;18.00;56.40
68215;DHT22;55036;52.138;5.236;2023-05-01T16:34:50;17.90;56.40
68215;DHT22;55036;52.138;5.236;2023-05-01T16:37:18;17.90;56.90
68215;DHT22;55036;52.138;5.236;2023-05-01T16:39:46;17.90;56.80
68215;DHT22;55036;52.138;5.236;2023-05-01T16:42:14;17.90;57.20
68215;DHT22;55036;52.138;5.236;2023-05-01T16:44:40;17.90;57.50
68215;DHT22;55036;52.138;5.236;2023-05-01T16:47:10;18.00;57.60
68215;DHT22;55036;52.138;5.236;2023-05-01T16:49:40;17.90;57.10
68215;DHT22;55036;52.138;5.236;2023-05-01T16:52:12;17.80;58.40
68215;DHT22;55036;52.138;5.236;2023-05-01T16:54:42;17.80;58.10